sensor_id;sensor_type;location;lat;lon;timestamp;P1;durP1;ratioP1;P2;durP2;ratioP2
18364;SDS011;9309;52.126;11.616;2023-05-29T00:00:07;4.33;;;2.93;;
18364;SDS011;9309;52.126;11.616;2023-05-29T00:02:38;5.37;;;2.40;;
18364;SDS011;9309;52.126;11.616;2023-05-29T00:05:05;3.03;;;2.07;;
18364;SDS011;9309;52.126;11.616;2023-05-29T00:07:33;4.50;;;2.77;;
18364;SDS011;9309;52.126;11.616;2023-05-29T00:10:00;2.53;;;2.33;;
18364;SDS011;9309;52.126;11.616;2023-05-29T00:12:27;4.50;;;2.63;;
18364;SDS011;9309;52.126;11.616;2023-05-29T00:14:53;5.57;;;2.77;;
18364;SDS011;9309;52.126;11.616;2023-05-29T00:17:20;2.90;;;2.70;;
18364;SDS011;9309;52.126;11.616;2023-05-29T00:19:47;2.87;;;2.53;;
18364;SDS011;9309;52.126;11.616;2023-05-29T00:22:13;2.33;;;2.23;;
18364;SDS011;9309;52.126;11.616;2023-05-29T00:24:41;2.60;;;2.40;;
18364;SDS011;9309;52.126;11.616;2023-05-29T00:27:08;2.57;;;2.37;;
18364;SDS011;9309;52.126;11.616;2023-05-29T00:29:35;2.53;;;2.43;;
18364;SDS011;9309;52.126;11.616;2023-05-29T00:32:05;3.90;;;2.60;;
18364;SDS011;9309;52.126;11.616;2023-05-29T00:34:32;7.40;;;3.40;;
18364;SDS011;9309;52.126;11.616;2023-05-29T00:36:58;7.20;;;2.80;;
18364;SDS011;9309;52.126;11.616;2023-05-29T00:39:26;8.87;;;2.40;;
18364;SDS011;9309;52.126;11.616;2023-05-29T00:41:54;3.43;;;2.60;;
18364;SDS011;9309;52.126;11.616;2023-05-29T00:44:21;6.10;;;3.50;;
18364;SDS011;9309;52.126;11.616;2023-05-29T00:46:49;2.67;;;2.33;;
18364;SDS011;9309;52.126;11.616;2023-05-29T00:49:18;3.30;;;2.57;;
18364;SDS011;9309;52.126;11.616;2023-05-29T00:51:45;6.23;;;2.87;;
18364;SDS011;9309;52.126;11.616;2023-05-29T00:54:14;3.03;;;2.67;;
18364;SDS011;9309;52.126;11.616;2023-05-29T00:56:46;3.57;;;2.90;;
18364;SDS011;9309;52.126;11.616;2023-05-29T00:59:15;3.27;;;2.70;;
18364;SDS011;9309;52.126;11.616;2023-05-29T01:01:43;3.67;;;2.60;;
18364;SDS011;9309;52.126;11.616;2023-05-29T01:04:10;2.77;;;2.47;;
18364;SDS011;9309;52.126;11.616;2023-05-29T01:06:38;2.83;;;2.63;;
18364;SDS011;9309;52.126;11.616;2023-05-29T01:09:06;5.33;;;2.43;;
18364;SDS011;9309;52.126;11.616;2023-05-29T01:11:36;2.40;;;2.20;;
18364;SDS011;9309;52.126;11.616;2023-05-29T01:14:08;2.53;;;2.30;;
18364;SDS011;9309;52.126;11.616;2023-05-29T01:16:42;2.17;;;2.03;;
18364;SDS011;9309;52.126;11.616;2023-05-29T01:19:18;4.63;;;2.20;;
18364;SDS011;9309;52.126;11.616;2023-05-29T01:22:03;2.93;;;2.37;;
18364;SDS011;9309;52.126;11.616;2023-05-29T01:24:42;10.40;;;2.67;;
18364;SDS011;9309;52.126;11.616;2023-05-29T01:27:17;3.53;;;2.80;;
18364;SDS011;9309;52.126;11.616;2023-05-29T01:29:45;7.60;;;2.70;;
18364;SDS011;9309;52.126;11.616;2023-05-29T01:32:15;9.77;;;2.80;;
18364;SDS011;9309;52.126;11.616;2023-05-29T01:34:44;2.47;;;2.33;;
18364;SDS011;9309;52.126;11.616;2023-05-29T01:37:11;3.17;;;2.73;;
18364;SDS011;9309;52.126;11.616;2023-05-29T01:39:38;4.47;;;3.43;;
18364;SDS011;9309;52.126;11.616;2023-05-29T01:42:05;3.30;;;2.73;;
18364;SDS011;9309;52.126;11.616;2023-05-29T01:44:35;3.33;;;2.97;;
18364;SDS011;9309;52.126;11.616;2023-05-29T01:47:03;4.50;;;3.00;;
18364;SDS011;9309;52.126;11.616;2023-05-29T01:49:33;3.57;;;2.67;;
18364;SDS011;9309;52.126;11.616;2023-05-29T01:52:02;5.40;;;3.00;;
18364;SDS011;9309;52.126;11.616;2023-05-29T01:54:29;2.60;;;2.47;;
18364;SDS011;9309;52.126;11.616;2023-05-29T01:56:56;3.60;;;3.27;;
18364;SDS011;9309;52.126;11.616;2023-05-29T01:59:23;2.57;;;2.33;;
18364;SDS011;9309;52.126;11.616;2023-05-29T02:01:52;7.20;;;2.73;;
18364;SDS011;9309;52.126;11.616;2023-05-29T02:04:19;3.13;;;2.80;;
18364;SDS011;9309;52.126;11.616;2023-05-29T02:06:46;3.67;;;2.70;;
18364;SDS011;9309;52.126;11.616;2023-05-29T02:09:13;2.20;;;2.10;;
18364;SDS011;9309;52.126;11.616;2023-05-29T02:11:40;3.83;;;2.50;;
18364;SDS011;9309;52.126;11.616;2023-05-29T02:14:10;7.80;;;3.10;;
18364;SDS011;9309;52.126;11.616;2023-05-29T02:16:37;3.30;;;2.23;;
18364;SDS011;9309;52.126;11.616;2023-05-29T02:19:07;2.70;;;2.50;;
18364;SDS011;9309;52.126;11.616;2023-05-29T02:21:34;3.80;;;2.40;;
18364;SDS011;9309;52.126;11.616;2023-05-29T02:24:00;3.37;;;2.87;;
18364;SDS011;9309;52.126;11.616;2023-05-29T02:26:27;3.20;;;2.87;;
18364;SDS011;9309;52.126;11.616;2023-05-29T02:28:54;2.37;;;2.27;;
18364;SDS011;9309;52.126;11.616;2023-05-29T02:31:21;3.53;;;3.23;;
18364;SDS011;9309;52.126;11.616;2023-05-29T02:33:47;3.77;;;3.30;;
18364;SDS011;9309;52.126;11.616;2023-05-29T02:36:15;2.93;;;2.40;;
18364;SDS011;9309;52.126;11.616;2023-05-29T02:38:42;6.10;;;3.73;;
18364;SDS011;9309;52.126;11.616;2023-05-29T02:41:09;5.60;;;2.43;;
18364;SDS011;9309;52.126;11.616;2023-05-29T02:43:36;2.43;;;2.33;;
18364;SDS011;9309;52.126;11.616;2023-05-29T02:46:02;4.10;;;2.93;;
18364;SDS011;9309;52.126;11.616;2023-05-29T02:48:29;2.93;;;2.67;;
18364;SDS011;9309;52.126;11.616;2023-05-29T02:50:56;5.57;;;2.80;;
18364;SDS011;9309;52.126;11.616;2023-05-29T02:53:24;5.63;;;2.80;;
18364;SDS011;9309;52.126;11.616;2023-05-29T02:55:51;6.20;;;3.43;;
18364;SDS011;9309;52.126;11.616;2023-05-29T02:58:20;7.63;;;3.33;;
18364;SDS011;9309;52.126;11.616;2023-05-29T03:00:47;3.00;;;2.80;;
18364;SDS011;9309;52.126;11.616;2023-05-29T03:03:15;3.73;;;2.70;;
18364;SDS011;9309;52.126;11.616;2023-05-29T03:05:42;2.93;;;2.67;;
18364;SDS011;9309;52.126;11.616;2023-05-29T03:08:08;3.50;;;2.83;;
18364;SDS011;9309;52.126;11.616;2023-05-29T03:10:36;3.13;;;2.20;;
18364;SDS011;9309;52.126;11.616;2023-05-29T03:13:03;8.23;;;2.90;;
18364;SDS011;9309;52.126;11.616;2023-05-29T03:15:30;4.87;;;3.10;;
18364;SDS011;9309;52.126;11.616;2023-05-29T03:17:56;7.50;;;2.90;;
18364;SDS011;9309;52.126;11.616;2023-05-29T03:20:27;3.00;;;2.70;;
18364;SDS011;9309;52.126;11.616;2023-05-29T03:22:55;2.80;;;2.57;;
18364;SDS011;9309;52.126;11.616;2023-05-29T03:25:22;4.67;;;2.77;;
18364;SDS011;9309;52.126;11.616;2023-05-29T03:27:50;3.00;;;2.80;;
18364;SDS011;9309;52.126;11.616;2023-05-29T03:30:19;3.57;;;2.77;;
18364;SDS011;9309;52.126;11.616;2023-05-29T03:32:46;4.27;;;2.67;;
18364;SDS011;9309;52.126;11.616;2023-05-29T03:35:13;3.27;;;2.70;;
18364;SDS011;9309;52.126;11.616;2023-05-29T03:37:42;6.53;;;3.03;;
18364;SDS011;9309;52.126;11.616;2023-05-29T03:40:12;7.53;;;3.17;;
18364;SDS011;9309;52.126;11.616;2023-05-29T03:42:39;3.43;;;2.60;;
18364;SDS011;9309;52.126;11.616;2023-05-29T03:45:07;2.80;;;2.60;;
18364;SDS011;9309;52.126;11.616;2023-05-29T03:47:37;3.37;;;3.07;;
18364;SDS011;9309;52.126;11.616;2023-05-29T03:50:04;2.20;;;2.10;;
18364;SDS011;9309;52.126;11.616;2023-05-29T03:52:34;3.53;;;2.77;;
18364;SDS011;9309;52.126;11.616;2023-05-29T03:55:01;3.17;;;2.70;;
18364;SDS011;9309;52.126;11.616;2023-05-29T03:57:28;3.77;;;2.73;;
18364;SDS011;9309;52.126;11.616;2023-05-29T03:59:54;3.83;;;3.33;;
18364;SDS011;9309;52.126;11.616;2023-05-29T04:02:23;2.67;;;2.57;;
18364;SDS011;9309;52.126;11.616;2023-05-29T04:04:49;4.10;;;2.77;;
18364;SDS011;9309;52.126;11.616;2023-05-29T04:07:17;4.83;;;2.97;;
18364;SDS011;9309;52.126;11.616;2023-05-29T04:09:47;2.70;;;2.13;;
18364;SDS011;9309;52.126;11.616;2023-05-29T04:12:13;3.20;;;2.90;;
18364;SDS011;9309;52.126;11.616;2023-05-29T04:14:40;4.20;;;3.00;;
18364;SDS011;9309;52.126;11.616;2023-05-29T04:17:07;3.43;;;3.17;;
18364;SDS011;9309;52.126;11.616;2023-05-29T04:19:35;3.30;;;3.00;;
18364;SDS011;9309;52.126;11.616;2023-05-29T04:22:02;11.57;;;2.93;;
18364;SDS011;9309;52.126;11.616;2023-05-29T04:24:29;2.80;;;2.60;;
18364;SDS011;9309;52.126;11.616;2023-05-29T04:26:58;2.77;;;2.47;;
18364;SDS011;9309;52.126;11.616;2023-05-29T04:29:25;4.53;;;3.00;;
18364;SDS011;9309;52.126;11.616;2023-05-29T04:31:53;2.43;;;2.30;;
18364;SDS011;9309;52.126;11.616;2023-05-29T04:34:20;4.10;;;2.40;;
18364;SDS011;9309;52.126;11.616;2023-05-29T04:36:49;5.03;;;2.53;;
18364;SDS011;9309;52.126;11.616;2023-05-29T04:39:16;2.43;;;2.33;;
18364;SDS011;9309;52.126;11.616;2023-05-29T04:41:43;2.80;;;2.63;;
18364;SDS011;9309;52.126;11.616;2023-05-29T04:44:13;3.20;;;2.47;;
18364;SDS011;9309;52.126;11.616;2023-05-29T04:46:44;2.70;;;2.17;;
18364;SDS011;9309;52.126;11.616;2023-05-29T04:49:13;3.27;;;2.73;;
18364;SDS011;9309;52.126;11.616;2023-05-29T04:51:40;2.80;;;2.70;;
18364;SDS011;9309;52.126;11.616;2023-05-29T04:54:08;3.57;;;2.43;;
18364;SDS011;9309;52.126;11.616;2023-05-29T04:56:36;2.77;;;2.53;;
18364;SDS011;9309;52.126;11.616;2023-05-29T04:59:06;3.63;;;2.73;;
18364;SDS011;9309;52.126;11.616;2023-05-29T05:01:33;3.17;;;2.73;;
18364;SDS011;9309;52.126;11.616;2023-05-29T05:03:59;7.23;;;3.43;;
18364;SDS011;9309;52.126;11.616;2023-05-29T05:06:26;3.70;;;2.37;;
18364;SDS011;9309;52.126;11.616;2023-05-29T05:08:54;2.80;;;2.60;;
18364;SDS011;9309;52.126;11.616;2023-05-29T05:11:22;5.80;;;3.20;;
18364;SDS011;9309;52.126;11.616;2023-05-29T05:13:50;2.47;;;2.27;;
18364;SDS011;9309;52.126;11.616;2023-05-29T05:16:17;4.23;;;2.40;;
18364;SDS011;9309;52.126;11.616;2023-05-29T05:18:44;2.47;;;2.37;;
18364;SDS011;9309;52.126;11.616;2023-05-29T05:21:11;3.13;;;2.93;;
18364;SDS011;9309;52.126;11.616;2023-05-29T05:23:38;2.50;;;2.30;;
18364;SDS011;9309;52.126;11.616;2023-05-29T05:26:06;2.37;;;2.17;;
18364;SDS011;9309;52.126;11.616;2023-05-29T05:28:35;2.23;;;2.03;;
18364;SDS011;9309;52.126;11.616;2023-05-29T05:31:03;2.47;;;2.37;;
18364;SDS011;9309;52.126;11.616;2023-05-29T05:33:31;3.03;;;2.67;;
18364;SDS011;9309;52.126;11.616;2023-05-29T05:35:57;2.30;;;2.20;;
18364;SDS011;9309;52.126;11.616;2023-05-29T05:38:25;2.10;;;2.00;;
18364;SDS011;9309;52.126;11.616;2023-05-29T05:40:52;2.93;;;2.40;;
18364;SDS011;9309;52.126;11.616;2023-05-29T05:43:24;5.10;;;2.40;;
18364;SDS011;9309;52.126;11.616;2023-05-29T05:46:13;4.23;;;2.20;;
18364;SDS011;9309;52.126;11.616;2023-05-29T05:48:42;5.07;;;2.53;;
18364;SDS011;9309;52.126;11.616;2023-05-29T05:51:09;2.80;;;2.60;;
18364;SDS011;9309;52.126;11.616;2023-05-29T05:53:37;2.43;;;2.27;;
18364;SDS011;9309;52.126;11.616;2023-05-29T05:56:03;2.07;;;1.97;;
18364;SDS011;9309;52.126;11.616;2023-05-29T05:58:31;2.57;;;2.10;;
18364;SDS011;9309;52.126;11.616;2023-05-29T06:00:58;3.80;;;2.03;;
18364;SDS011;9309;52.126;11.616;2023-05-29T06:03:27;3.57;;;2.17;;
18364;SDS011;9309;52.126;11.616;2023-05-29T06:06:01;2.33;;;2.23;;
18364;SDS011;9309;52.126;11.616;2023-05-29T06:08:28;2.30;;;2.10;;
18364;SDS011;9309;52.126;11.616;2023-05-29T06:10:55;3.07;;;2.80;;
18364;SDS011;9309;52.126;11.616;2023-05-29T06:13:22;3.83;;;2.10;;
18364;SDS011;9309;52.126;11.616;2023-05-29T06:15:55;2.33;;;2.00;;
18364;SDS011;9309;52.126;11.616;2023-05-29T06:18:21;2.80;;;2.10;;
18364;SDS011;9309;52.126;11.616;2023-05-29T06:20:49;3.30;;;2.77;;
18364;SDS011;9309;52.126;11.616;2023-05-29T06:23:16;2.10;;;2.00;;
18364;SDS011;9309;52.126;11.616;2023-05-29T06:25:43;2.50;;;2.40;;
18364;SDS011;9309;52.126;11.616;2023-05-29T06:28:10;3.50;;;2.23;;
18364;SDS011;9309;52.126;11.616;2023-05-29T06:30:37;2.60;;;2.20;;
18364;SDS011;9309;52.126;11.616;2023-05-29T06:33:06;2.10;;;2.10;;
18364;SDS011;9309;52.126;11.616;2023-05-29T06:35:35;2.47;;;2.27;;
18364;SDS011;9309;52.126;11.616;2023-05-29T06:38:03;6.33;;;2.10;;
18364;SDS011;9309;52.126;11.616;2023-05-29T06:40:29;2.10;;;2.00;;
18364;SDS011;9309;52.126;11.616;2023-05-29T06:42:56;2.10;;;1.87;;
18364;SDS011;9309;52.126;11.616;2023-05-29T06:45:36;2.70;;;2.40;;
18364;SDS011;9309;52.126;11.616;2023-05-29T06:48:03;1.90;;;1.80;;
18364;SDS011;9309;52.126;11.616;2023-05-29T06:50:30;2.50;;;2.30;;
18364;SDS011;9309;52.126;11.616;2023-05-29T06:53:06;2.27;;;2.07;;
18364;SDS011;9309;52.126;11.616;2023-05-29T06:56:02;2.30;;;2.20;;
18364;SDS011;9309;52.126;11.616;2023-05-29T06:58:29;3.00;;;2.63;;
18364;SDS011;9309;52.126;11.616;2023-05-29T07:00:57;8.37;;;2.17;;
18364;SDS011;9309;52.126;11.616;2023-05-29T07:03:29;3.30;;;1.63;;
18364;SDS011;9309;52.126;11.616;2023-05-29T07:05:56;2.30;;;2.20;;
18364;SDS011;9309;52.126;11.616;2023-05-29T07:08:24;6.77;;;1.87;;
18364;SDS011;9309;52.126;11.616;2023-05-29T07:10:51;6.20;;;2.00;;
18364;SDS011;9309;52.126;11.616;2023-05-29T07:13:19;3.40;;;1.80;;
18364;SDS011;9309;52.126;11.616;2023-05-29T07:15:47;3.33;;;2.20;;
18364;SDS011;9309;52.126;11.616;2023-05-29T07:18:15;1.70;;;1.60;;
18364;SDS011;9309;52.126;11.616;2023-05-29T07:20:42;1.77;;;1.67;;
18364;SDS011;9309;52.126;11.616;2023-05-29T07:23:12;2.10;;;2.00;;
18364;SDS011;9309;52.126;11.616;2023-05-29T07:25:40;1.80;;;1.70;;
18364;SDS011;9309;52.126;11.616;2023-05-29T07:28:08;2.30;;;2.20;;
18364;SDS011;9309;52.126;11.616;2023-05-29T07:30:36;2.07;;;1.97;;
18364;SDS011;9309;52.126;11.616;2023-05-29T07:33:04;2.10;;;1.90;;
18364;SDS011;9309;52.126;11.616;2023-05-29T07:35:31;2.37;;;1.80;;
18364;SDS011;9309;52.126;11.616;2023-05-29T07:37:59;2.37;;;2.27;;
18364;SDS011;9309;52.126;11.616;2023-05-29T07:40:26;5.07;;;2.37;;
18364;SDS011;9309;52.126;11.616;2023-05-29T07:43:00;2.10;;;1.70;;
18364;SDS011;9309;52.126;11.616;2023-05-29T07:45:42;2.27;;;1.90;;
18364;SDS011;9309;52.126;11.616;2023-05-29T07:48:09;4.30;;;2.47;;
18364;SDS011;9309;52.126;11.616;2023-05-29T07:50:36;1.80;;;1.70;;
18364;SDS011;9309;52.126;11.616;2023-05-29T07:53:03;2.20;;;2.10;;
18364;SDS011;9309;52.126;11.616;2023-05-29T07:55:33;3.70;;;1.63;;
18364;SDS011;9309;52.126;11.616;2023-05-29T07:58:02;1.67;;;1.67;;
18364;SDS011;9309;52.126;11.616;2023-05-29T08:00:29;1.50;;;1.40;;
18364;SDS011;9309;52.126;11.616;2023-05-29T08:02:56;1.87;;;1.73;;
18364;SDS011;9309;52.126;11.616;2023-05-29T08:05:26;2.33;;;2.13;;
18364;SDS011;9309;52.126;11.616;2023-05-29T08:07:52;1.87;;;1.77;;
18364;SDS011;9309;52.126;11.616;2023-05-29T08:10:19;1.90;;;1.80;;
18364;SDS011;9309;52.126;11.616;2023-05-29T08:12:46;2.40;;;2.10;;
18364;SDS011;9309;52.126;11.616;2023-05-29T08:15:15;3.30;;;1.90;;
18364;SDS011;9309;52.126;11.616;2023-05-29T08:17:42;1.63;;;1.50;;
18364;SDS011;9309;52.126;11.616;2023-05-29T08:20:09;1.97;;;1.87;;
18364;SDS011;9309;52.126;11.616;2023-05-29T08:22:36;2.10;;;1.70;;
18364;SDS011;9309;52.126;11.616;2023-05-29T08:25:03;4.73;;;2.07;;
18364;SDS011;9309;52.126;11.616;2023-05-29T08:27:30;1.57;;;1.53;;
18364;SDS011;9309;52.126;11.616;2023-05-29T08:29:57;2.47;;;1.90;;
18364;SDS011;9309;52.126;11.616;2023-05-29T08:32:25;2.00;;;1.70;;
18364;SDS011;9309;52.126;11.616;2023-05-29T08:34:52;1.87;;;1.57;;
18364;SDS011;9309;52.126;11.616;2023-05-29T08:37:19;1.75;;;1.65;;
18364;SDS011;9309;52.126;11.616;2023-05-29T08:39:45;1.70;;;1.60;;
18364;SDS011;9309;52.126;11.616;2023-05-29T08:42:13;1.65;;;1.65;;
18364;SDS011;9309;52.126;11.616;2023-05-29T08:44:46;1.40;;;1.40;;
18364;SDS011;9309;52.126;11.616;2023-05-29T08:47:14;3.40;;;1.90;;
18364;SDS011;9309;52.126;11.616;2023-05-29T08:49:48;3.88;;;1.92;;
18364;SDS011;9309;52.126;11.616;2023-05-29T08:52:19;3.92;;;1.85;;
18364;SDS011;9309;52.126;11.616;2023-05-29T08:54:48;1.45;;;1.38;;
18364;SDS011;9309;52.126;11.616;2023-05-29T08:57:14;2.53;;;2.33;;
18364;SDS011;9309;52.126;11.616;2023-05-29T08:59:42;1.80;;;1.70;;
18364;SDS011;9309;52.126;11.616;2023-05-29T09:02:10;1.88;;;1.60;;
18364;SDS011;9309;52.126;11.616;2023-05-29T09:04:37;2.08;;;1.88;;
18364;SDS011;9309;52.126;11.616;2023-05-29T09:07:09;2.22;;;2.03;;
18364;SDS011;9309;52.126;11.616;2023-05-29T09:09:36;3.60;;;1.98;;
18364;SDS011;9309;52.126;11.616;2023-05-29T09:14:56;2.13;;;1.98;;
18364;SDS011;9309;52.126;11.616;2023-05-29T09:17:23;1.90;;;1.80;;
18364;SDS011;9309;52.126;11.616;2023-05-29T09:19:49;1.60;;;1.50;;
18364;SDS011;9309;52.126;11.616;2023-05-29T09:22:18;1.90;;;1.80;;
18364;SDS011;9309;52.126;11.616;2023-05-29T09:24:45;2.47;;;1.57;;
18364;SDS011;9309;52.126;11.616;2023-05-29T09:27:13;2.03;;;1.83;;
18364;SDS011;9309;52.126;11.616;2023-05-29T09:29:41;6.53;;;1.77;;
18364;SDS011;9309;52.126;11.616;2023-05-29T09:32:09;2.10;;;1.80;;
18364;SDS011;9309;52.126;11.616;2023-05-29T09:34:37;1.75;;;1.67;;
18364;SDS011;9309;52.126;11.616;2023-05-29T09:37:05;2.83;;;1.55;;
18364;SDS011;9309;52.126;11.616;2023-05-29T09:39:37;4.43;;;1.60;;
18364;SDS011;9309;52.126;11.616;2023-05-29T09:42:11;2.08;;;1.88;;
18364;SDS011;9309;52.126;11.616;2023-05-29T09:44:39;2.17;;;1.35;;
18364;SDS011;9309;52.126;11.616;2023-05-29T09:47:16;1.65;;;1.55;;
18364;SDS011;9309;52.126;11.616;2023-05-29T09:49:43;1.75;;;1.65;;
18364;SDS011;9309;52.126;11.616;2023-05-29T09:52:10;2.28;;;1.77;;
18364;SDS011;9309;52.126;11.616;2023-05-29T09:54:39;2.80;;;1.70;;
18364;SDS011;9309;52.126;11.616;2023-05-29T09:57:10;1.40;;;1.38;;
18364;SDS011;9309;52.126;11.616;2023-05-29T09:59:38;2.72;;;1.52;;
18364;SDS011;9309;52.126;11.616;2023-05-29T10:02:09;1.27;;;1.27;;
18364;SDS011;9309;52.126;11.616;2023-05-29T10:04:39;1.60;;;1.50;;
18364;SDS011;9309;52.126;11.616;2023-05-29T10:07:08;1.85;;;1.75;;
18364;SDS011;9309;52.126;11.616;2023-05-29T10:09:38;1.50;;;1.40;;
18364;SDS011;9309;52.126;11.616;2023-05-29T10:12:08;2.03;;;1.65;;
18364;SDS011;9309;52.126;11.616;2023-05-29T10:14:38;1.98;;;1.55;;
18364;SDS011;9309;52.126;11.616;2023-05-29T10:17:06;1.65;;;1.50;;
18364;SDS011;9309;52.126;11.616;2023-05-29T10:19:36;1.38;;;1.38;;
18364;SDS011;9309;52.126;11.616;2023-05-29T10:22:05;1.75;;;1.65;;
18364;SDS011;9309;52.126;11.616;2023-05-29T10:24:32;2.90;;;1.70;;
18364;SDS011;9309;52.126;11.616;2023-05-29T10:27:01;2.88;;;1.50;;
18364;SDS011;9309;52.126;11.616;2023-05-29T10:29:29;1.52;;;1.48;;
18364;SDS011;9309;52.126;11.616;2023-05-29T10:32:11;2.95;;;1.60;;
18364;SDS011;9309;52.126;11.616;2023-05-29T10:34:47;1.58;;;1.35;;
18364;SDS011;9309;52.126;11.616;2023-05-29T10:37:26;5.95;;;1.70;;
18364;SDS011;9309;52.126;11.616;2023-05-29T10:40:04;3.28;;;1.55;;
18364;SDS011;9309;52.126;11.616;2023-05-29T10:42:40;1.75;;;1.40;;
18364;SDS011;9309;52.126;11.616;2023-05-29T10:45:08;2.00;;;1.50;;
18364;SDS011;9309;52.126;11.616;2023-05-29T10:47:36;2.38;;;1.25;;
18364;SDS011;9309;52.126;11.616;2023-05-29T10:50:04;2.00;;;1.55;;
18364;SDS011;9309;52.126;11.616;2023-05-29T10:52:32;1.42;;;1.33;;
18364;SDS011;9309;52.126;11.616;2023-05-29T10:55:00;1.58;;;1.40;;
18364;SDS011;9309;52.126;11.616;2023-05-29T10:57:29;1.20;;;1.20;;
18364;SDS011;9309;52.126;11.616;2023-05-29T11:00:05;2.55;;;1.25;;
18364;SDS011;9309;52.126;11.616;2023-05-29T11:02:39;2.60;;;1.08;;
18364;SDS011;9309;52.126;11.616;2023-05-29T11:05:19;1.58;;;1.50;;
18364;SDS011;9309;52.126;11.616;2023-05-29T11:07:55;1.20;;;1.10;;
18364;SDS011;9309;52.126;11.616;2023-05-29T11:13:07;3.13;;;1.27;;
18364;SDS011;9309;52.126;11.616;2023-05-29T11:15:34;2.03;;;1.35;;
18364;SDS011;9309;52.126;11.616;2023-05-29T11:18:05;2.35;;;1.50;;
18364;SDS011;9309;52.126;11.616;2023-05-29T11:20:36;2.97;;;1.40;;
18364;SDS011;9309;52.126;11.616;2023-05-29T11:23:13;2.50;;;1.67;;
18364;SDS011;9309;52.126;11.616;2023-05-29T11:25:43;3.83;;;1.60;;
18364;SDS011;9309;52.126;11.616;2023-05-29T11:28:12;1.77;;;1.58;;
18364;SDS011;9309;52.126;11.616;2023-05-29T11:30:42;4.00;;;1.70;;
18364;SDS011;9309;52.126;11.616;2023-05-29T11:33:15;2.28;;;1.60;;
18364;SDS011;9309;52.126;11.616;2023-05-29T11:35:55;1.80;;;1.20;;
18364;SDS011;9309;52.126;11.616;2023-05-29T11:38:24;2.08;;;1.73;;
18364;SDS011;9309;52.126;11.616;2023-05-29T11:40:52;1.35;;;1.35;;
18364;SDS011;9309;52.126;11.616;2023-05-29T11:43:20;3.10;;;1.77;;
18364;SDS011;9309;52.126;11.616;2023-05-29T11:45:47;1.50;;;1.38;;
18364;SDS011;9309;52.126;11.616;2023-05-29T11:48:13;4.13;;;1.35;;
18364;SDS011;9309;52.126;11.616;2023-05-29T11:50:40;2.90;;;1.60;;
18364;SDS011;9309;52.126;11.616;2023-05-29T11:53:08;2.08;;;1.73;;
18364;SDS011;9309;52.126;11.616;2023-05-29T11:55:36;2.70;;;1.60;;
18364;SDS011;9309;52.126;11.616;2023-05-29T11:58:03;4.13;;;1.95;;
18364;SDS011;9309;52.126;11.616;2023-05-29T12:00:31;3.78;;;1.17;;
18364;SDS011;9309;52.126;11.616;2023-05-29T12:02:59;1.52;;;1.40;;
18364;SDS011;9309;52.126;11.616;2023-05-29T12:05:28;2.00;;;1.80;;
18364;SDS011;9309;52.126;11.616;2023-05-29T12:07:55;3.33;;;2.25;;
18364;SDS011;9309;52.126;11.616;2023-05-29T12:10:23;1.80;;;1.77;;
18364;SDS011;9309;52.126;11.616;2023-05-29T12:12:52;2.40;;;2.17;;
18364;SDS011;9309;52.126;11.616;2023-05-29T12:15:19;2.42;;;2.22;;
18364;SDS011;9309;52.126;11.616;2023-05-29T12:17:47;2.95;;;1.98;;
18364;SDS011;9309;52.126;11.616;2023-05-29T12:20:16;2.13;;;1.92;;
18364;SDS011;9309;52.126;11.616;2023-05-29T12:22:44;5.78;;;2.03;;
18364;SDS011;9309;52.126;11.616;2023-05-29T12:25:12;2.15;;;1.95;;
18364;SDS011;9309;52.126;11.616;2023-05-29T12:27:40;1.92;;;1.27;;
18364;SDS011;9309;52.126;11.616;2023-05-29T12:30:11;1.58;;;1.55;;
18364;SDS011;9309;52.126;11.616;2023-05-29T12:32:40;1.38;;;1.38;;
18364;SDS011;9309;52.126;11.616;2023-05-29T12:35:11;2.35;;;1.90;;
18364;SDS011;9309;52.126;11.616;2023-05-29T12:37:42;3.33;;;1.98;;
18364;SDS011;9309;52.126;11.616;2023-05-29T12:40:11;2.55;;;1.98;;
18364;SDS011;9309;52.126;11.616;2023-05-29T12:42:40;3.13;;;2.03;;
18364;SDS011;9309;52.126;11.616;2023-05-29T12:45:07;2.58;;;1.75;;
18364;SDS011;9309;52.126;11.616;2023-05-29T12:47:36;1.80;;;1.75;;
18364;SDS011;9309;52.126;11.616;2023-05-29T12:52:55;1.63;;;1.52;;
18364;SDS011;9309;52.126;11.616;2023-05-29T12:55:23;3.72;;;1.55;;
18364;SDS011;9309;52.126;11.616;2023-05-29T12:57:50;2.05;;;1.67;;
18364;SDS011;9309;52.126;11.616;2023-05-29T13:00:18;2.70;;;2.03;;
18364;SDS011;9309;52.126;11.616;2023-05-29T13:02:47;2.92;;;2.08;;
18364;SDS011;9309;52.126;11.616;2023-05-29T13:05:14;2.25;;;1.75;;
18364;SDS011;9309;52.126;11.616;2023-05-29T13:07:43;1.45;;;1.35;;
18364;SDS011;9309;52.126;11.616;2023-05-29T13:10:11;2.70;;;1.88;;
18364;SDS011;9309;52.126;11.616;2023-05-29T13:12:37;2.00;;;1.67;;
18364;SDS011;9309;52.126;11.616;2023-05-29T13:15:04;1.95;;;1.30;;
18364;SDS011;9309;52.126;11.616;2023-05-29T13:17:32;1.75;;;1.65;;
18364;SDS011;9309;52.126;11.616;2023-05-29T13:20:00;2.17;;;1.50;;
18364;SDS011;9309;52.126;11.616;2023-05-29T13:22:27;1.63;;;1.52;;
18364;SDS011;9309;52.126;11.616;2023-05-29T13:24:56;2.75;;;1.70;;
18364;SDS011;9309;52.126;11.616;2023-05-29T13:27:24;1.75;;;1.42;;
18364;SDS011;9309;52.126;11.616;2023-05-29T13:29:51;1.15;;;1.15;;
18364;SDS011;9309;52.126;11.616;2023-05-29T13:32:18;1.95;;;1.70;;
18364;SDS011;9309;52.126;11.616;2023-05-29T13:34:45;2.67;;;1.58;;
18364;SDS011;9309;52.126;11.616;2023-05-29T13:37:12;2.40;;;1.35;;
18364;SDS011;9309;52.126;11.616;2023-05-29T13:39:39;1.48;;;1.00;;
18364;SDS011;9309;52.126;11.616;2023-05-29T13:42:06;1.33;;;1.23;;
18364;SDS011;9309;52.126;11.616;2023-05-29T13:44:34;2.10;;;1.23;;
18364;SDS011;9309;52.126;11.616;2023-05-29T13:47:01;1.23;;;1.23;;
18364;SDS011;9309;52.126;11.616;2023-05-29T13:49:28;3.97;;;1.48;;
18364;SDS011;9309;52.126;11.616;2023-05-29T13:51:54;1.75;;;1.30;;
18364;SDS011;9309;52.126;11.616;2023-05-29T13:54:22;2.90;;;1.92;;
18364;SDS011;9309;52.126;11.616;2023-05-29T13:56:49;1.70;;;1.60;;
18364;SDS011;9309;52.126;11.616;2023-05-29T13:59:15;2.72;;;1.10;;
18364;SDS011;9309;52.126;11.616;2023-05-29T14:01:42;2.85;;;1.63;;
18364;SDS011;9309;52.126;11.616;2023-05-29T14:04:10;2.67;;;1.05;;
18364;SDS011;9309;52.126;11.616;2023-05-29T14:06:37;1.38;;;1.23;;
18364;SDS011;9309;52.126;11.616;2023-05-29T14:09:03;5.47;;;1.92;;
18364;SDS011;9309;52.126;11.616;2023-05-29T14:11:31;3.15;;;1.20;;
18364;SDS011;9309;52.126;11.616;2023-05-29T14:14:00;1.73;;;1.58;;
18364;SDS011;9309;52.126;11.616;2023-05-29T14:16:27;2.00;;;1.58;;
18364;SDS011;9309;52.126;11.616;2023-05-29T14:18:53;1.83;;;1.23;;
18364;SDS011;9309;52.126;11.616;2023-05-29T14:21:20;1.40;;;1.40;;
18364;SDS011;9309;52.126;11.616;2023-05-29T14:23:47;3.42;;;1.63;;
18364;SDS011;9309;52.126;11.616;2023-05-29T14:26:13;2.25;;;1.92;;
18364;SDS011;9309;52.126;11.616;2023-05-29T14:28:41;4.07;;;2.22;;
18364;SDS011;9309;52.126;11.616;2023-05-29T14:31:08;1.25;;;1.20;;
18364;SDS011;9309;52.126;11.616;2023-05-29T14:33:35;5.15;;;1.48;;
18364;SDS011;9309;52.126;11.616;2023-05-29T14:36:02;1.65;;;1.20;;
18364;SDS011;9309;52.126;11.616;2023-05-29T14:38:29;1.40;;;1.40;;
18364;SDS011;9309;52.126;11.616;2023-05-29T14:40:55;1.02;;;1.00;;
18364;SDS011;9309;52.126;11.616;2023-05-29T14:43:22;1.60;;;1.50;;
18364;SDS011;9309;52.126;11.616;2023-05-29T14:45:50;3.67;;;1.33;;
18364;SDS011;9309;52.126;11.616;2023-05-29T14:48:16;1.67;;;1.23;;
18364;SDS011;9309;52.126;11.616;2023-05-29T14:50:43;1.50;;;1.40;;
18364;SDS011;9309;52.126;11.616;2023-05-29T14:53:10;2.10;;;1.70;;
18364;SDS011;9309;52.126;11.616;2023-05-29T14:55:36;1.48;;;1.38;;
18364;SDS011;9309;52.126;11.616;2023-05-29T14:58:04;1.20;;;1.20;;
18364;SDS011;9309;52.126;11.616;2023-05-29T15:00:31;2.58;;;1.63;;
18364;SDS011;9309;52.126;11.616;2023-05-29T15:02:59;1.52;;;1.42;;